Terminal Aerodrome Forecast
Issued by NWS

Home | Current Version | Previous Version | Text Only | Print | Product List | Glossary On
Versions: 1 2 3 4 5 6 7 8 9 10 11 12 13 14 15
754
FTUS46 KMFR 300545
TAFRBG
TAF
KRBG 300545Z 3006/3106 33004KT P6SM -SHRA SCT015 OVC035
      TEMPO 3006/3010 4SM -SHRA BR BKN015 OVC030
     FM301000 00000KT 5SM -SHRA BR OVC015
     FM301400 00000KT P6SM -SHRA BKN025 OVC040
     FM301800 35010KT P6SM BKN050
     FM310300 36003KT P6SM BKN025 BKN050=

USA.gov is the U.S. government's official web portal to all federal, state and local government web resources and services.